Time,TemperatureF,DewpointF,PressureIn,WindDirection,WindDirectionDegrees,WindSpeedMPH,WindSpeedGustMPH,Humidity,HourlyPrecipIn,Conditions,Clouds,dailyrainin,SoftwareType,DateUTC
2013-03-25 00:03:00,43.2,35.8,30.13,West,270,0.0,14.0,75,0.00,,,0.00,Wunderground v.1.15,2013-03-25 07:03:00,
2013-03-25 00:08:00,43.1,35.4,30.13,West,271,0.0,14.0,74,0.00,,,0.00,Wunderground v.1.15,2013-03-25 07:08:00,
2013-03-25 00:13:00,43.1,35.7,30.13,West,271,0.0,14.0,75,0.00,,,0.00,Wunderground v.1.15,2013-03-25 07:13:00,
2013-03-25 00:18:00,42.9,35.5,30.13,West,271,0.0,14.0,75,0.00,,,0.00,Wunderground v.1.15,2013-03-25 07:18:00,
2013-03-25 00:23:00,43.0,36.3,30.13,WNW,286,0.0,14.0,77,0.00,,,0.00,Wunderground v.1.15,2013-03-25 07:23:00,
2013-03-25 00:29:00,43.1,36.7,30.13,WNW,286,1.0,14.0,78,0.00,,,0.00,Wunderground v.1.15,2013-03-25 07:29:00,
2013-03-25 00:34:00,43.1,36.7,30.13,North,357,1.0,14.0,78,0.00,,,0.00,Wunderground v.1.15,2013-03-25 07:34:00,
2013-03-25 00:39:00,43.1,36.7,30.13,North,357,1.0,14.0,78,0.00,,,0.00,Wunderground v.1.15,2013-03-25 07:39:00,
2013-03-25 00:44:00,43.2,36.8,30.13,SW,234,0.0,14.0,78,0.00,,,0.00,Wunderground v.1.15,2013-03-25 07:44:00,
2013-03-25 00:50:00,43.1,37.0,30.13,SW,234,0.0,14.0,79,0.00,,,0.00,Wunderground v.1.15,2013-03-25 07:50:00,
2013-03-25 00:55:00,43.0,36.6,30.13,West,274,0.0,14.0,78,0.00,,,0.00,Wunderground v.1.15,2013-03-25 07:55:00,
2013-03-25 01:00:00,43.1,37.0,30.12,West,274,0.0,14.0,79,0.00,,,0.00,Wunderground v.1.15,2013-03-25 08:00:00,
2013-03-25 01:05:00,43.1,37.0,30.12,West,274,0.0,14.0,79,0.00,,,0.00,Wunderground v.1.15,2013-03-25 08:05:00,
2013-03-25 01:10:00,42.9,37.2,30.12,West,274,0.0,14.0,80,0.00,,,0.00,Wunderground v.1.15,2013-03-25 08:10:00,
2013-03-25 01:16:00,42.8,37.1,30.12,West,274,0.0,14.0,80,0.00,,,0.00,Wunderground v.1.15,2013-03-25 08:16:00,
2013-03-25 01:22:00,42.7,37.3,30.12,West,274,0.0,14.0,81,0.00,,,0.00,Wunderground v.1.15,2013-03-25 08:22:00,
2013-03-25 01:27:00,42.6,37.2,30.12,West,274,0.0,14.0,81,0.00,,,0.00,Wunderground v.1.15,2013-03-25 08:27:00,
2013-03-25 01:32:00,42.5,37.1,30.12,West,274,0.0,14.0,81,0.00,,,0.00,Wunderground v.1.15,2013-03-25 08:32:00,
2013-03-25 01:37:00,42.5,37.4,30.12,West,275,0.0,14.0,82,0.00,,,0.00,Wunderground v.1.15,2013-03-25 08:37:00,
2013-03-25 01:43:00,42.3,37.2,30.12,WNW,285,0.0,14.0,82,0.00,,,0.00,Wunderground v.1.15,2013-03-25 08:43:00,
2013-03-25 01:49:00,42.2,37.1,30.12,WNW,283,1.0,14.0,82,0.00,,,0.00,Wunderground v.1.15,2013-03-25 08:49:00,
2013-03-25 01:54:00,42.0,36.3,30.12,WNW,288,1.0,14.0,80,0.00,,,0.00,Wunderground v.1.15,2013-03-25 08:54:00,
2013-03-25 01:59:00,41.7,35.7,30.12,WNW,284,1.0,14.0,79,0.00,,,0.00,Wunderground v.1.15,2013-03-25 08:59:00,
2013-03-25 02:05:00,41.3,35.0,30.12,West,281,1.0,14.0,78,0.00,,,0.00,Wunderground v.1.15,2013-03-25 09:05:00,
2013-03-25 02:10:00,41.1,33.8,30.12,WNW,285,1.0,14.0,75,0.00,,,0.00,Wunderground v.1.15,2013-03-25 09:10:00,
2013-03-25 02:15:00,40.9,33.2,30.11,WNW,292,1.0,14.0,74,0.00,,,0.00,Wunderground v.1.15,2013-03-25 09:15:00,
2013-03-25 02:20:00,40.7,33.7,30.11,WNW,286,1.0,14.0,76,0.00,,,0.00,Wunderground v.1.15,2013-03-25 09:20:00,
2013-03-25 02:25:00,40.5,34.5,30.11,WNW,288,1.0,14.0,79,0.00,,,0.00,Wunderground v.1.15,2013-03-25 09:25:00,
2013-03-25 02:30:00,40.4,34.4,30.11,West,278,1.0,1.0,79,0.00,,,0.00,Wunderground v.1.15,2013-03-25 09:30:00,
2013-03-25 02:35:00,40.3,34.9,30.11,West,272,1.0,14.0,81,0.00,,,0.00,Wunderground v.1.15,2013-03-25 09:35:00,
2013-03-25 02:40:00,40.2,34.8,30.11,WNW,290,1.0,14.0,81,0.00,,,0.00,Wunderground v.1.15,2013-03-25 09:40:00,
2013-03-25 02:45:00,40.1,34.7,30.11,WNW,288,1.0,14.0,81,0.00,,,0.00,Wunderground v.1.15,2013-03-25 09:45:00,
2013-03-25 02:51:00,39.9,34.5,30.11,West,275,1.0,14.0,81,0.00,,,0.00,Wunderground v.1.15,2013-03-25 09:51:00,
2013-03-25 02:56:00,39.9,34.5,30.11,WNW,283,1.0,14.0,81,0.00,,,0.00,Wunderground v.1.15,2013-03-25 09:56:00,
2013-03-25 03:01:00,39.6,34.6,30.11,WNW,285,0.0,14.0,82,0.00,,,0.00,Wunderground v.1.15,2013-03-25 10:01:00,
2013-03-25 03:07:00,39.6,34.9,30.11,WNW,283,0.0,14.0,83,0.00,,,0.00,Wunderground v.1.15,2013-03-25 10:07:00,
2013-03-25 03:12:00,39.5,34.8,30.10,WNW,283,1.0,14.0,83,0.00,,,0.00,Wunderground v.1.15,2013-03-25 10:12:00,
2013-03-25 03:17:00,39.4,35.0,30.10,WNW,285,1.0,14.0,84,0.00,,,0.00,Wunderground v.1.15,2013-03-25 10:17:00,
2013-03-25 03:22:00,39.3,34.9,30.10,West,277,1.0,14.0,84,0.00,,,0.00,Wunderground v.1.15,2013-03-25 10:22:00,
2013-03-25 03:28:00,39.2,35.4,30.10,WNW,289,1.0,14.0,86,0.00,,,0.00,Wunderground v.1.15,2013-03-25 10:28:00,
2013-03-25 03:33:00,39.4,35.0,30.10,WNW,284,1.0,14.0,84,0.00,,,0.00,Wunderground v.1.15,2013-03-25 10:33:00,
2013-03-25 03:38:00,39.2,35.1,30.10,WNW,291,1.0,14.0,85,0.00,,,0.00,Wunderground v.1.15,2013-03-25 10:38:00,
2013-03-25 03:43:00,39.1,35.0,30.10,West,266,1.0,14.0,85,0.00,,,0.00,Wunderground v.1.15,2013-03-25 10:43:00,
2013-03-25 03:48:00,39.0,34.9,30.10,WNW,284,1.0,14.0,85,0.00,,,0.00,Wunderground v.1.15,2013-03-25 10:48:00,
2013-03-25 03:53:00,38.9,34.8,30.10,West,275,1.0,14.0,85,0.00,,,0.00,Wunderground v.1.15,2013-03-25 10:53:00,
2013-03-25 03:59:00,38.7,34.3,30.10,WNW,284,1.0,14.0,84,0.00,,,0.00,Wunderground v.1.15,2013-03-25 10:59:00,
2013-03-25 04:05:00,38.6,34.2,30.10,WNW,288,1.0,14.0,84,0.00,,,0.00,Wunderground v.1.15,2013-03-25 11:05:00,
2013-03-25 04:10:00,38.5,34.1,30.10,WNW,288,1.0,14.0,84,0.00,,,0.00,Wunderground v.1.15,2013-03-25 11:10:00,
2013-03-25 04:16:00,38.4,34.0,30.10,West,278,1.0,14.0,84,0.00,,,0.00,Wunderground v.1.15,2013-03-25 11:16:00,
2013-03-25 04:22:00,38.2,33.8,30.10,WNW,288,1.0,14.0,84,0.00,,,0.00,Wunderground v.1.15,2013-03-25 11:22:00,
2013-03-25 04:27:00,38.2,33.5,30.10,WNW,284,1.0,14.0,83,0.00,,,0.00,Wunderground v.1.15,2013-03-25 11:27:00,
2013-03-25 04:32:00,38.0,33.6,30.10,West,281,1.0,14.0,84,0.00,,,0.00,Wunderground v.1.15,2013-03-25 11:32:00,
2013-03-25 04:37:00,38.0,33.6,30.10,West,278,1.0,14.0,84,0.00,,,0.00,Wunderground v.1.15,2013-03-25 11:37:00,
2013-03-25 04:42:00,37.9,33.5,30.10,WNW,295,1.0,14.0,84,0.00,,,0.00,Wunderground v.1.15,2013-03-25 11:42:00,
2013-03-25 04:48:00,38.0,33.6,30.10,West,279,1.0,14.0,84,0.00,,,0.00,Wunderground v.1.15,2013-03-25 11:48:00,
2013-03-25 04:53:00,37.9,33.5,30.10,West,269,1.0,14.0,84,0.00,,,0.00,Wunderground v.1.15,2013-03-25 11:53:00,
2013-03-25 04:58:00,37.7,33.6,30.10,WNW,286,1.0,14.0,85,0.00,,,0.00,Wunderground v.1.15,2013-03-25 11:58:00,
2013-03-25 05:03:00,37.7,33.3,30.10,WNW,288,1.0,14.0,84,0.00,,,0.00,Wunderground v.1.15,2013-03-25 12:03:00,
2013-03-25 05:09:00,37.7,33.3,30.10,West,267,1.0,14.0,84,0.00,,,0.00,Wunderground v.1.15,2013-03-25 12:09:00,
2013-03-25 05:14:00,37.7,33.6,30.10,WNW,290,1.0,14.0,85,0.00,,,0.00,Wunderground v.1.15,2013-03-25 12:14:00,
2013-03-25 05:19:00,37.6,33.5,30.10,WNW,293,2.0,14.0,85,0.00,,,0.00,Wunderground v.1.15,2013-03-25 12:19:00,
2013-03-25 05:25:00,37.1,33.3,30.10,WNW,290,2.0,14.0,86,0.00,,,0.00,Wunderground v.1.15,2013-03-25 12:25:00,
2013-03-25 05:31:00,37.1,33.0,30.10,WNW,285,2.0,14.0,85,0.00,,,0.00,Wunderground v.1.15,2013-03-25 12:31:00,
2013-03-25 05:36:00,37.2,32.8,30.10,WNW,288,2.0,14.0,84,0.00,,,0.00,Wunderground v.1.15,2013-03-25 12:36:00,
2013-03-25 05:41:00,37.3,33.8,30.10,WNW,288,2.0,14.0,87,0.00,,,0.00,Wunderground v.1.15,2013-03-25 12:41:00,
2013-03-25 05:47:00,37.1,33.3,30.10,West,280,1.0,14.0,86,0.00,,,0.00,Wunderground v.1.15,2013-03-25 12:47:00,
2013-03-25 05:52:00,36.9,32.8,30.10,West,281,1.0,14.0,85,0.00,,,0.00,Wunderground v.1.15,2013-03-25 12:52:00,
2013-03-25 05:57:00,36.9,33.1,30.10,West,273,2.0,14.0,86,0.00,,,0.00,Wunderground v.1.15,2013-03-25 12:57:00,
2013-03-25 06:02:00,36.8,33.0,30.10,WNW,285,1.0,14.0,86,0.00,,,0.00,Wunderground v.1.15,2013-03-25 13:02:00,
2013-03-25 06:07:00,36.4,32.9,30.10,West,270,1.0,14.0,87,0.00,,,0.00,Wunderground v.1.15,2013-03-25 13:07:00,
2013-03-25 06:12:00,36.3,32.8,30.09,WNW,287,1.0,14.0,87,0.00,,,0.00,Wunderground v.1.15,2013-03-25 13:12:00,
2013-03-25 06:17:00,36.3,32.8,30.09,WNW,282,1.0,14.0,87,0.00,,,0.00,Wunderground v.1.15,2013-03-25 13:17:00,
2013-03-25 06:22:00,36.3,32.8,30.09,WNW,290,0.0,14.0,87,0.00,,,0.00,Wunderground v.1.15,2013-03-25 13:22:00,
2013-03-25 06:27:00,36.2,32.7,30.09,WNW,285,1.0,14.0,87,0.00,,,0.00,Wunderground v.1.15,2013-03-25 13:27:00,
2013-03-25 06:33:00,36.2,33.0,30.09,WNW,285,0.0,14.0,88,0.00,,,0.00,Wunderground v.1.15,2013-03-25 13:33:00,
2013-03-25 06:38:00,36.1,32.9,30.09,WNW,284,0.0,14.0,88,0.00,,,0.00,Wunderground v.1.15,2013-03-25 13:38:00,
2013-03-25 06:43:00,36.0,32.8,30.09,West,281,0.0,14.0,88,0.00,,,0.00,Wunderground v.1.15,2013-03-25 13:43:00,
2013-03-25 06:48:00,36.0,32.8,30.09,West,281,0.0,14.0,88,0.00,,,0.00,Wunderground v.1.15,2013-03-25 13:48:00,
2013-03-25 06:53:00,36.1,33.2,30.09,WSW,250,0.0,14.0,89,0.00,,,0.00,Wunderground v.1.15,2013-03-25 13:53:00,
2013-03-25 06:58:00,36.2,33.5,30.09,West,281,0.0,14.0,90,0.00,,,0.00,Wunderground v.1.15,2013-03-25 13:58:00,
2013-03-25 07:03:00,36.4,34.0,30.09,WSW,253,0.0,14.0,91,0.00,,,0.00,Wunderground v.1.15,2013-03-25 14:03:00,
2013-03-25 07:09:00,36.5,34.1,30.09,WNW,293,1.0,14.0,91,0.00,,,0.00,Wunderground v.1.15,2013-03-25 14:09:00,
2013-03-25 07:14:00,36.3,33.1,30.09,WNW,288,1.0,14.0,88,0.00,,,0.00,Wunderground v.1.15,2013-03-25 14:14:00,
2013-03-25 07:19:00,36.3,33.1,30.09,WNW,291,0.0,14.0,88,0.00,,,0.00,Wunderground v.1.15,2013-03-25 14:19:00,
2013-03-25 07:24:00,36.3,33.1,30.09,WSW,241,0.0,14.0,88,0.00,,,0.00,Wunderground v.1.15,2013-03-25 14:24:00,
2013-03-25 07:29:00,36.7,33.5,30.09,WSW,253,0.0,14.0,88,0.00,,,0.00,Wunderground v.1.15,2013-03-25 14:29:00,
2013-03-25 07:35:00,37.6,34.4,30.09,WSW,255,0.0,14.0,88,0.00,,,0.00,Wunderground v.1.15,2013-03-25 14:35:00,
2013-03-25 07:40:00,38.5,35.5,30.09,WNW,288,0.0,14.0,89,0.00,,,0.00,Wunderground v.1.15,2013-03-25 14:40:00,
2013-03-25 07:45:00,39.5,36.5,30.09,NNE,17,0.0,14.0,89,0.00,,,0.00,Wunderground v.1.15,2013-03-25 14:45:00,
2013-03-25 07:50:00,40.1,36.2,30.09,WNW,295,0.0,14.0,86,0.00,,,0.00,Wunderground v.1.15,2013-03-25 14:50:00,
2013-03-25 07:56:00,40.7,35.9,30.09,SW,221,0.0,14.0,83,0.00,,,0.00,Wunderground v.1.15,2013-03-25 14:56:00,
2013-03-25 08:01:00,41.7,36.6,30.09,SW,221,0.0,14.0,82,0.00,,,0.00,Wunderground v.1.15,2013-03-25 15:01:00,
2013-03-25 08:06:00,42.7,37.9,30.09,ENE,72,0.0,14.0,83,0.00,,,0.00,Wunderground v.1.15,2013-03-25 15:06:00,
2013-03-25 08:12:00,42.5,38.3,30.09,ENE,60,2.0,14.0,85,0.00,,,0.00,Wunderground v.1.15,2013-03-25 15:12:00,
2013-03-25 08:17:00,42.4,38.5,30.09,ENE,63,3.0,14.0,86,0.00,,,0.00,Wunderground v.1.15,2013-03-25 15:17:00,
2013-03-25 08:22:00,42.2,38.3,30.09,NE,46,3.0,14.0,86,0.00,,,0.00,Wunderground v.1.15,2013-03-25 15:22:00,
2013-03-25 08:27:00,41.7,38.4,30.09,North,360,4.0,14.0,88,0.00,,,0.00,Wunderground v.1.15,2013-03-25 15:27:00,
2013-03-25 08:33:00,41.7,38.4,30.09,NNE,24,5.0,14.0,88,0.00,,,0.00,Wunderground v.1.15,2013-03-25 15:33:00,
2013-03-25 08:38:00,41.6,38.3,30.09,NE,35,5.0,14.0,88,0.00,,,0.00,Wunderground v.1.15,2013-03-25 15:38:00,
2013-03-25 08:43:00,41.9,38.6,30.09,NNE,33,4.0,14.0,88,0.00,,,0.00,Wunderground v.1.15,2013-03-25 15:43:00,
2013-03-25 08:48:00,42.3,39.0,30.08,ENE,60,4.0,14.0,88,0.00,,,0.00,Wunderground v.1.15,2013-03-25 15:48:00,
2013-03-25 08:53:00,42.7,38.8,30.08,NE,37,4.0,14.0,86,0.00,,,0.00,Wunderground v.1.15,2013-03-25 15:53:00,
2013-03-25 08:59:00,43.0,39.4,30.08,NE,47,4.0,14.0,87,0.00,,,0.00,Wunderground v.1.15,2013-03-25 15:59:00,
2013-03-25 09:04:00,43.2,39.0,30.08,NE,55,4.0,14.0,85,0.00,,,0.00,Wunderground v.1.15,2013-03-25 16:04:00,
2013-03-25 09:10:00,43.7,37.6,30.08,NE,40,4.0,14.0,79,0.00,,,0.00,Wunderground v.1.15,2013-03-25 16:10:00,
2013-03-25 09:15:00,44.3,36.5,30.08,NE,34,4.0,14.0,74,0.00,,,0.00,Wunderground v.1.15,2013-03-25 16:15:00,
2013-03-25 09:20:00,44.7,36.9,30.08,ENE,67,3.0,14.0,74,0.00,,,0.00,Wunderground v.1.15,2013-03-25 16:20:00,
2013-03-25 09:25:00,44.9,35.7,30.08,North,355,4.0,14.0,70,0.00,,,0.00,Wunderground v.1.15,2013-03-25 16:25:00,
2013-03-25 09:31:00,45.4,36.5,30.08,ENE,68,4.0,14.0,71,0.00,,,0.00,Wunderground v.1.15,2013-03-25 16:31:00,
2013-03-25 09:37:00,45.6,35.6,30.08,NE,47,4.0,14.0,68,0.00,,,0.00,Wunderground v.1.15,2013-03-25 16:37:00,
2013-03-25 09:42:00,45.6,36.4,30.08,NE,51,4.0,14.0,70,0.00,,,0.00,Wunderground v.1.15,2013-03-25 16:42:00,
2013-03-25 09:48:00,45.7,36.5,30.07,NE,43,5.0,14.0,70,0.00,,,0.00,Wunderground v.1.15,2013-03-25 16:48:00,
2013-03-25 09:53:00,46.2,36.2,30.07,NE,46,5.0,14.0,68,0.00,,,0.00,Wunderground v.1.15,2013-03-25 16:53:00,
2013-03-25 09:59:00,46.5,37.2,30.07,NE,56,5.0,14.0,70,0.00,,,0.00,Wunderground v.1.15,2013-03-25 16:59:00,
2013-03-25 10:05:00,46.4,37.5,30.07,East,82,5.0,14.0,71,0.00,,,0.00,Wunderground v.1.15,2013-03-25 17:05:00,
2013-03-25 10:10:00,46.5,37.6,30.07,NNE,23,5.0,14.0,71,0.00,,,0.00,Wunderground v.1.15,2013-03-25 17:10:00,
2013-03-25 10:15:00,46.5,37.2,30.07,NE,49,5.0,14.0,70,0.00,,,0.00,Wunderground v.1.15,2013-03-25 17:15:00,
2013-03-25 10:21:00,46.5,35.7,30.07,NE,50,6.0,14.0,66,0.00,,,0.00,Wunderground v.1.15,2013-03-25 17:21:00,
2013-03-25 10:26:00,46.9,36.1,30.07,NE,44,6.0,14.0,66,0.00,,,0.00,Wunderground v.1.15,2013-03-25 17:26:00,
2013-03-25 10:31:00,47.2,36.8,30.07,NE,46,6.0,14.0,67,0.00,,,0.00,Wunderground v.1.15,2013-03-25 17:31:00,
2013-03-25 10:37:00,47.7,35.3,30.07,NE,53,5.0,14.0,62,0.00,,,0.00,Wunderground v.1.15,2013-03-25 17:37:00,
2013-03-25 10:42:00,47.7,38.4,30.07,NNE,21,5.0,14.0,70,0.00,,,0.00,Wunderground v.1.15,2013-03-25 17:42:00,
2013-03-25 10:47:00,47.5,38.2,30.06,NE,38,5.0,14.0,70,0.00,,,0.00,Wunderground v.1.15,2013-03-25 17:47:00,
2013-03-25 10:53:00,47.5,38.2,30.06,NE,41,5.0,14.0,70,0.00,,,0.00,Wunderground v.1.15,2013-03-25 17:53:00,
2013-03-25 10:58:00,47.5,38.6,30.06,NE,42,5.0,14.0,71,0.00,,,0.00,Wunderground v.1.15,2013-03-25 17:58:00,
2013-03-25 11:03:00,47.8,39.9,30.06,NNE,27,4.0,14.0,74,0.00,,,0.00,Wunderground v.1.15,2013-03-25 18:03:00,
2013-03-25 11:08:00,48.1,38.8,30.06,ENE,57,3.0,14.0,70,0.00,,,0.00,Wunderground v.1.15,2013-03-25 18:08:00,
2013-03-25 11:13:00,48.3,39.0,30.06,ENE,75,4.0,14.0,70,0.00,,,0.00,Wunderground v.1.15,2013-03-25 18:13:00,
2013-03-25 11:18:00,48.4,39.1,30.06,NNE,24,4.0,14.0,70,0.00,,,0.00,Wunderground v.1.15,2013-03-25 18:18:00,
2013-03-25 11:24:00,48.9,39.2,30.06,NE,53,3.0,14.0,69,0.00,,,0.00,Wunderground v.1.15,2013-03-25 18:24:00,
2013-03-25 11:29:00,49.1,36.6,30.06,ENE,61,4.0,14.0,62,0.00,,,0.00,Wunderground v.1.15,2013-03-25 18:29:00,
2013-03-25 11:35:00,49.3,37.2,30.06,NE,41,5.0,14.0,63,0.00,,,0.00,Wunderground v.1.15,2013-03-25 18:35:00,
2013-03-25 11:40:00,49.5,38.2,30.05,ENE,72,4.0,4.0,65,0.00,,,0.00,Wunderground v.1.15,2013-03-25 18:40:00,
2013-03-25 11:45:00,49.7,35.9,30.05,ENE,77,4.0,14.0,59,0.00,,,0.00,Wunderground v.1.15,2013-03-25 18:45:00,
2013-03-25 11:50:00,50.1,37.6,30.05,NE,54,4.0,14.0,62,0.00,,,0.00,Wunderground v.1.15,2013-03-25 18:50:00,
2013-03-25 11:55:00,50.3,33.8,30.05,ENE,58,4.0,14.0,53,0.00,,,0.00,Wunderground v.1.15,2013-03-25 18:55:00,
2013-03-25 12:01:00,51.1,34.5,30.05,NE,54,4.0,14.0,53,0.00,,,0.00,Wunderground v.1.15,2013-03-25 19:01:00,
2013-03-25 12:07:00,51.9,33.3,30.05,ENE,60,3.0,14.0,49,0.00,,,0.00,Wunderground v.1.15,2013-03-25 19:07:00,
2013-03-25 12:12:00,52.3,32.1,30.05,NNE,32,2.0,14.0,46,0.00,,,0.00,Wunderground v.1.15,2013-03-25 19:12:00,
2013-03-25 12:17:00,52.8,30.9,30.04,ENE,58,3.0,14.0,43,0.00,,,0.00,Wunderground v.1.15,2013-03-25 19:17:00,
2013-03-25 12:23:00,53.2,30.7,30.04,NE,42,3.0,14.0,42,0.00,,,0.00,Wunderground v.1.15,2013-03-25 19:23:00,
2013-03-25 12:29:00,53.3,31.4,30.04,East,89,3.0,14.0,43,0.00,,,0.00,Wunderground v.1.15,2013-03-25 19:29:00,
2013-03-25 12:34:00,53.5,29.7,30.03,NE,54,4.0,14.0,40,0.00,,,0.00,Wunderground v.1.15,2013-03-25 19:34:00,
2013-03-25 12:39:00,53.6,29.2,30.03,ENE,57,4.0,14.0,39,0.00,,,0.00,Wunderground v.1.15,2013-03-25 19:39:00,
2013-03-25 12:44:00,53.8,29.4,30.03,ENE,64,4.0,14.0,39,0.00,,,0.00,Wunderground v.1.15,2013-03-25 19:44:00,
2013-03-25 12:49:00,53.6,28.6,30.03,ENE,65,4.0,14.0,38,0.00,,,0.00,Wunderground v.1.15,2013-03-25 19:49:00,
2013-03-25 12:55:00,53.9,30.7,30.03,ENE,71,3.0,14.0,41,0.00,,,0.00,Wunderground v.1.15,2013-03-25 19:55:00,
2013-03-25 13:00:00,53.9,29.5,30.03,ENE,63,2.0,14.0,39,0.00,,,0.00,Wunderground v.1.15,2013-03-25 20:00:00,
2013-03-25 13:05:00,54.1,30.9,30.03,NNE,15,2.0,14.0,41,0.00,,,0.00,Wunderground v.1.15,2013-03-25 20:05:00,
2013-03-25 13:10:00,54.2,30.4,30.03,ENE,77,3.0,14.0,40,0.00,,,0.00,Wunderground v.1.15,2013-03-25 20:10:00,
2013-03-25 13:16:00,54.3,27.9,30.02,ENE,78,3.0,14.0,36,0.00,,,0.00,Wunderground v.1.15,2013-03-25 20:16:00,
2013-03-25 13:21:00,54.4,29.9,30.02,ENE,64,3.0,14.0,39,0.00,,,0.00,Wunderground v.1.15,2013-03-25 20:21:00,
2013-03-25 13:27:00,54.9,28.4,30.02,ENE,70,3.0,14.0,36,0.00,,,0.00,Wunderground v.1.15,2013-03-25 20:27:00,
2013-03-25 13:32:00,55.0,28.5,30.02,NE,51,2.0,14.0,36,0.00,,,0.00,Wunderground v.1.15,2013-03-25 20:32:00,
2013-03-25 13:37:00,55.2,27.3,30.02,East,82,2.0,14.0,34,0.00,,,0.00,Wunderground v.1.15,2013-03-25 20:37:00,
2013-03-25 13:42:00,55.8,26.3,30.02,ENE,77,2.0,14.0,32,0.00,,,0.00,Wunderground v.1.15,2013-03-25 20:42:00,
2013-03-25 13:48:00,55.8,28.5,30.01,East,86,2.0,14.0,35,0.00,,,0.00,Wunderground v.1.15,2013-03-25 20:48:00,
2013-03-25 13:53:00,55.8,29.2,30.01,NE,41,3.0,14.0,36,0.00,,,0.00,Wunderground v.1.15,2013-03-25 20:53:00,
2013-03-25 13:58:00,56.2,28.2,30.01,NNE,31,3.0,14.0,34,0.00,,,0.00,Wunderground v.1.15,2013-03-25 20:58:00,
2013-03-25 14:03:00,56.4,29.1,30.00,ENE,60,3.0,14.0,35,0.00,,,0.00,Wunderground v.1.15,2013-03-25 21:03:00,
2013-03-25 14:08:00,56.3,29.7,30.00,ENE,58,3.0,14.0,36,0.00,,,0.00,Wunderground v.1.15,2013-03-25 21:08:00,
2013-03-25 14:14:00,56.5,27.7,30.00,ENE,67,3.0,14.0,33,0.00,,,0.00,Wunderground v.1.15,2013-03-25 21:14:00,
2013-03-25 14:19:00,56.6,29.2,30.00,NE,51,3.0,14.0,35,0.00,,,0.00,Wunderground v.1.15,2013-03-25 21:19:00,
2013-03-25 14:24:00,56.5,28.4,30.00,North,11,4.0,14.0,34,0.00,,,0.00,Wunderground v.1.15,2013-03-25 21:24:00,
2013-03-25 14:29:00,56.6,27.8,29.99,NE,55,3.0,14.0,33,0.00,,,0.00,Wunderground v.1.15,2013-03-25 21:29:00,
2013-03-25 14:35:00,57.2,29.8,29.99,ENE,57,3.0,14.0,35,0.00,,,0.00,Wunderground v.1.15,2013-03-25 21:35:00,
2013-03-25 14:40:00,56.8,28.7,29.99,NE,37,3.0,14.0,34,0.00,,,0.00,Wunderground v.1.15,2013-03-25 21:40:00,
2013-03-25 14:45:00,57.0,28.9,29.99,NE,46,4.0,14.0,34,0.00,,,0.00,Wunderground v.1.15,2013-03-25 21:45:00,
2013-03-25 14:50:00,57.1,29.0,29.99,NE,44,3.0,14.0,34,0.00,,,0.00,Wunderground v.1.15,2013-03-25 21:50:00,
2013-03-25 14:55:00,56.9,30.2,29.99,NE,46,4.0,14.0,36,0.00,,,0.00,Wunderground v.1.15,2013-03-25 21:55:00,
2013-03-25 15:00:00,57.4,29.9,29.98,East,85,3.0,3.0,35,0.00,,,0.00,Wunderground v.1.15,2013-03-25 22:00:00,
2013-03-25 15:06:00,57.6,28.7,29.98,NE,50,3.0,14.0,33,0.00,,,0.00,Wunderground v.1.15,2013-03-25 22:06:00,
2013-03-25 15:11:00,57.5,29.3,29.98,ENE,65,3.0,14.0,34,0.00,,,0.00,Wunderground v.1.15,2013-03-25 22:11:00,
2013-03-25 15:17:00,57.9,30.4,29.98,NE,53,3.0,14.0,35,0.00,,,0.00,Wunderground v.1.15,2013-03-25 22:17:00,
2013-03-25 15:22:00,57.8,28.9,29.98,ENE,74,3.0,14.0,33,0.00,,,0.00,Wunderground v.1.15,2013-03-25 22:22:00,
2013-03-25 15:28:00,57.9,29.7,29.97,NE,44,3.0,14.0,34,0.00,,,0.00,Wunderground v.1.15,2013-03-25 22:28:00,
2013-03-25 15:33:00,58.3,29.3,29.97,ENE,67,2.0,14.0,33,0.00,,,0.00,Wunderground v.1.15,2013-03-25 22:33:00,
2013-03-25 15:38:00,58.3,29.3,29.97,NE,52,3.0,14.0,33,0.00,,,0.00,Wunderground v.1.15,2013-03-25 22:38:00,
2013-03-25 15:44:00,58.6,28.8,29.97,NE,35,3.0,14.0,32,0.00,,,0.00,Wunderground v.1.15,2013-03-25 22:44:00,
2013-03-25 15:49:00,58.6,30.3,29.97,NE,43,3.0,14.0,34,0.00,,,0.00,Wunderground v.1.15,2013-03-25 22:49:00,
2013-03-25 15:54:00,58.5,29.5,29.97,ENE,63,4.0,14.0,33,0.00,,,0.00,Wunderground v.1.15,2013-03-25 22:54:00,
2013-03-25 15:59:00,58.5,29.5,29.96,NE,47,4.0,14.0,33,0.00,,,0.00,Wunderground v.1.15,2013-03-25 22:59:00,
2013-03-25 16:05:00,58.2,29.9,29.96,ENE,70,4.0,14.0,34,0.00,,,0.00,Wunderground v.1.15,2013-03-25 23:05:00,
2013-03-25 16:10:00,58.2,29.9,29.96,East,84,4.0,4.0,34,0.00,,,0.00,Wunderground v.1.15,2013-03-25 23:10:00,
2013-03-25 16:17:00,58.4,30.1,29.96,North,354,4.0,14.0,34,0.00,,,0.00,Wunderground v.1.15,2013-03-25 23:17:00,
2013-03-25 16:22:00,58.8,30.5,29.96,ENE,63,3.0,14.0,34,0.00,,,0.00,Wunderground v.1.15,2013-03-25 23:22:00,
2013-03-25 16:27:00,58.8,30.5,29.96,North,349,3.0,14.0,34,0.00,,,0.00,Wunderground v.1.15,2013-03-25 23:27:00,
2013-03-25 16:32:00,59.0,29.2,29.96,North,11,4.0,14.0,32,0.00,,,0.00,Wunderground v.1.15,2013-03-25 23:32:00,
2013-03-25 16:38:00,59.0,29.2,29.95,NNE,13,3.0,14.0,32,0.00,,,0.00,Wunderground v.1.15,2013-03-25 23:38:00,
2013-03-25 16:43:00,59.0,29.9,29.95,NNE,33,3.0,14.0,33,0.00,,,0.00,Wunderground v.1.15,2013-03-25 23:43:00,
2013-03-25 16:48:00,59.0,28.4,29.95,NE,34,3.0,14.0,31,0.00,,,0.00,Wunderground v.1.15,2013-03-25 23:48:00,
2013-03-25 16:53:00,58.9,29.8,29.95,NE,44,3.0,14.0,33,0.00,,,0.00,Wunderground v.1.15,2013-03-25 23:53:00,
2013-03-25 16:58:00,58.9,30.6,29.95,NNE,32,3.0,14.0,34,0.00,,,0.00,Wunderground v.1.15,2013-03-25 23:58:00,
2013-03-25 17:04:00,59.0,29.2,29.95,North,353,3.0,14.0,32,0.00,,,0.00,Wunderground v.1.15,2013-03-26 00:04:00,
2013-03-25 17:09:00,59.3,28.6,29.94,ENE,60,3.0,14.0,31,0.00,,,0.00,Wunderground v.1.15,2013-03-26 00:09:00,
2013-03-25 17:14:00,59.2,29.3,29.94,NE,42,2.0,14.0,32,0.00,,,0.00,Wunderground v.1.15,2013-03-26 00:14:00,
2013-03-25 17:19:00,58.7,28.9,29.94,NE,41,2.0,14.0,32,0.00,,,0.00,Wunderground v.1.15,2013-03-26 00:19:00,
2013-03-25 17:24:00,58.7,28.9,29.94,NE,51,3.0,14.0,32,0.00,,,0.00,Wunderground v.1.15,2013-03-26 00:24:00,
2013-03-25 17:30:00,58.6,28.8,29.94,NNE,33,2.0,2.0,32,0.00,,,0.00,Wunderground v.1.15,2013-03-26 00:30:00,
2013-03-25 17:35:00,58.7,29.6,29.94,NE,38,1.0,14.0,33,0.00,,,0.00,Wunderground v.1.15,2013-03-26 00:35:00,
2013-03-25 17:40:00,58.7,29.6,29.94,NNE,30,1.0,14.0,33,0.00,,,0.00,Wunderground v.1.15,2013-03-26 00:40:00,
2013-03-25 17:45:00,58.7,29.6,29.94,NNE,20,1.0,14.0,33,0.00,,,0.00,Wunderground v.1.15,2013-03-26 00:45:00,
2013-03-25 17:51:00,58.6,29.6,29.94,North,3,0.0,14.0,33,0.00,,,0.00,Wunderground v.1.15,2013-03-26 00:51:00,
2013-03-25 17:56:00,58.5,30.2,29.94,North,350,1.0,14.0,34,0.00,,,0.00,Wunderground v.1.15,2013-03-26 00:56:00,
2013-03-25 18:01:00,58.4,32.2,29.94,North,355,0.0,14.0,37,0.00,,,0.00,Wunderground v.1.15,2013-03-26 01:01:00,
2013-03-25 18:06:00,58.3,30.7,29.93,North,355,0.0,14.0,35,0.00,,,0.00,Wunderground v.1.15,2013-03-26 01:06:00,
2013-03-25 18:12:00,57.9,33.1,29.93,NE,41,0.0,14.0,39,0.00,,,0.00,Wunderground v.1.15,2013-03-26 01:12:00,
2013-03-25 18:17:00,57.5,33.3,29.93,North,353,0.0,14.0,40,0.00,,,0.00,Wunderground v.1.15,2013-03-26 01:17:00,
2013-03-25 18:23:00,57.3,35.0,29.93,North,353,0.0,14.0,43,0.00,,,0.00,Wunderground v.1.15,2013-03-26 01:23:00,
2013-03-25 18:28:00,57.0,35.3,29.93,North,353,0.0,14.0,44,0.00,,,0.00,Wunderground v.1.15,2013-03-26 01:28:00,
2013-03-25 18:33:00,56.7,37.2,29.93,North,353,0.0,14.0,48,0.00,,,0.00,Wunderground v.1.15,2013-03-26 01:33:00,
2013-03-25 18:39:00,56.4,35.9,29.93,North,353,0.0,14.0,46,0.00,,,0.00,Wunderground v.1.15,2013-03-26 01:39:00,
2013-03-25 18:45:00,56.3,32.3,29.93,North,353,0.0,14.0,40,0.00,,,0.00,Wunderground v.1.15,2013-03-26 01:45:00,
2013-03-25 18:50:00,56.4,33.0,29.93,WNW,300,0.0,14.0,41,0.00,,,0.00,Wunderground v.1.15,2013-03-26 01:50:00,
2013-03-25 18:55:00,56.3,32.9,29.93,WNW,300,0.0,14.0,41,0.00,,,0.00,Wunderground v.1.15,2013-03-26 01:55:00,
2013-03-25 19:00:00,55.4,33.8,29.93,East,88,1.0,14.0,44,0.00,,,0.00,Wunderground v.1.15,2013-03-26 02:00:00,
2013-03-25 19:06:00,55.8,31.8,29.93,ENE,58,2.0,14.0,40,0.00,,,0.00,Wunderground v.1.15,2013-03-26 02:06:00,
2013-03-25 19:11:00,55.8,31.8,29.93,North,11,1.0,14.0,40,0.00,,,0.00,Wunderground v.1.15,2013-03-26 02:11:00,
2013-03-25 19:17:00,55.6,32.2,29.94,North,350,1.0,14.0,41,0.00,,,0.00,Wunderground v.1.15,2013-03-26 02:17:00,
2013-03-25 19:22:00,55.3,32.0,29.94,North,11,2.0,14.0,41,0.00,,,0.00,Wunderground v.1.15,2013-03-26 02:22:00,
2013-03-25 19:28:00,54.9,32.2,29.94,NNW,340,2.0,14.0,42,0.00,,,0.00,Wunderground v.1.15,2013-03-26 02:28:00,
2013-03-25 19:33:00,54.6,32.5,29.94,NNW,347,2.0,14.0,43,0.00,,,0.00,Wunderground v.1.15,2013-03-26 02:33:00,
2013-03-25 19:39:00,54.1,33.2,29.94,NNW,336,2.0,14.0,45,0.00,,,0.00,Wunderground v.1.15,2013-03-26 02:39:00,
2013-03-25 19:44:00,53.6,33.3,29.94,North,5,2.0,14.0,46,0.00,,,0.00,Wunderground v.1.15,2013-03-26 02:44:00,
2013-03-25 19:50:00,53.2,33.5,29.94,NNW,331,1.0,14.0,47,0.00,,,0.00,Wunderground v.1.15,2013-03-26 02:50:00,
2013-03-25 19:56:00,52.7,33.5,29.94,NE,35,1.0,14.0,48,0.00,,,0.00,Wunderground v.1.15,2013-03-26 02:56:00,
2013-03-25 20:01:00,52.2,33.6,29.94,North,6,1.0,14.0,49,0.00,,,0.00,Wunderground v.1.15,2013-03-26 03:01:00,
2013-03-25 20:07:00,51.8,33.2,29.94,NNW,338,0.0,14.0,49,0.00,,,0.00,Wunderground v.1.15,2013-03-26 03:07:00,
2013-03-25 20:12:00,51.6,33.0,29.94,NE,38,0.0,14.0,49,0.00,,,0.00,Wunderground v.1.15,2013-03-26 03:12:00,
2013-03-25 20:17:00,51.4,33.4,29.94,North,352,0.0,14.0,50,0.00,,,0.00,Wunderground v.1.15,2013-03-26 03:17:00,
2013-03-25 20:22:00,51.4,32.9,29.94,North,1,1.0,14.0,49,0.00,,,0.00,Wunderground v.1.15,2013-03-26 03:22:00,
2013-03-25 20:27:00,51.4,31.8,29.95,NE,48,1.0,14.0,47,0.00,,,0.00,Wunderground v.1.15,2013-03-26 03:27:00,
2013-03-25 20:32:00,51.4,32.3,29.95,NW,314,1.0,14.0,48,0.00,,,0.00,Wunderground v.1.15,2013-03-26 03:32:00,
2013-03-25 20:38:00,51.3,32.3,29.95,North,6,1.0,14.0,48,0.00,,,0.00,Wunderground v.1.15,2013-03-26 03:38:00,
2013-03-25 20:43:00,51.3,32.3,29.95,NNE,20,1.0,2.0,48,0.00,,,0.00,Wunderground v.1.15,2013-03-26 03:43:00,
2013-03-25 20:49:00,51.2,32.2,29.95,North,360,0.0,2.0,48,0.00,,,0.00,Wunderground v.1.15,2013-03-26 03:49:00,
2013-03-25 20:54:00,51.1,32.6,29.95,NNW,339,0.0,1.0,49,0.00,,,0.00,Wunderground v.1.15,2013-03-26 03:54:00,
2013-03-25 21:00:00,50.9,32.9,29.95,North,10,0.0,0.0,50,0.00,,,0.00,Wunderground v.1.15,2013-03-26 04:00:00,
2013-03-25 21:01:00,50.9,32.9,29.95,North,10,0.0,0.0,50,0.00,,,0.00,Wunderground v.1.15,2013-03-26 04:01:00,
2013-03-25 21:06:00,50.6,33.1,29.95,North,6,0.0,0.0,51,0.00,,,0.00,Wunderground v.1.15,2013-03-26 04:06:00,
2013-03-25 21:12:00,50.3,33.8,29.96,NW,310,0.0,0.0,53,0.00,,,0.00,Wunderground v.1.15,2013-03-26 04:12:00,
2013-03-25 21:17:00,50.1,34.1,29.96,WNW,295,0.0,0.0,54,0.00,,,0.00,Wunderground v.1.15,2013-03-26 04:17:00,
2013-03-25 21:22:00,49.7,33.7,29.96,WNW,296,0.0,0.0,54,0.00,,,0.00,Wunderground v.1.15,2013-03-26 04:22:00,
2013-03-25 21:27:00,49.4,34.3,29.96,NNE,13,0.0,1.0,56,0.00,,,0.00,Wunderground v.1.15,2013-03-26 04:27:00,
2013-03-25 21:32:00,49.3,34.3,29.96,North,10,0.0,1.0,56,0.00,,,0.00,Wunderground v.1.15,2013-03-26 04:32:00,
2013-03-25 21:38:00,49.2,34.6,29.96,WNW,284,0.0,1.0,57,0.00,,,0.00,Wunderground v.1.15,2013-03-26 04:38:00,
2013-03-25 21:43:00,49.3,34.3,29.96,North,7,0.0,0.0,56,0.00,,,0.00,Wunderground v.1.15,2013-03-26 04:43:00,
2013-03-25 21:49:00,49.3,34.3,29.97,SE,130,0.0,1.0,56,0.00,,,0.00,Wunderground v.1.15,2013-03-26 04:49:00,
2013-03-25 21:54:00,49.2,35.0,29.97,SW,221,0.0,1.0,58,0.00,,,0.00,Wunderground v.1.15,2013-03-26 04:54:00,
2013-03-25 22:00:00,49.1,34.9,29.97,SW,234,0.0,0.0,58,0.00,,,0.00,Wunderground v.1.15,2013-03-26 05:00:00,
2013-03-25 22:05:00,49.1,34.5,29.96,SW,234,0.0,0.0,57,0.00,,,0.00,Wunderground v.1.15,2013-03-26 05:05:00,
2013-03-25 22:10:00,49.2,33.7,29.96,WNW,288,0.0,0.0,55,0.00,,,0.00,Wunderground v.1.15,2013-03-26 05:10:00,
2013-03-25 22:16:00,49.3,34.3,29.96,WNW,286,0.0,1.0,56,0.00,,,0.00,Wunderground v.1.15,2013-03-26 05:16:00,
2013-03-25 22:22:00,49.1,34.5,29.96,WNW,287,0.0,0.0,57,0.00,,,0.00,Wunderground v.1.15,2013-03-26 05:22:00,
2013-03-25 22:27:00,48.9,35.2,29.96,WNW,286,0.0,0.0,59,0.00,,,0.00,Wunderground v.1.15,2013-03-26 05:27:00,
2013-03-25 22:32:00,48.7,35.4,29.96,WNW,286,0.0,0.0,60,0.00,,,0.00,Wunderground v.1.15,2013-03-26 05:32:00,
2013-03-25 22:38:00,48.6,35.7,29.97,WNW,286,0.0,0.0,61,0.00,,,0.00,Wunderground v.1.15,2013-03-26 05:38:00,
2013-03-25 22:44:00,48.4,34.7,29.97,WNW,286,0.0,0.0,59,0.00,,,0.00,Wunderground v.1.15,2013-03-26 05:44:00,
2013-03-25 22:50:00,48.3,35.5,29.96,WNW,286,0.0,0.0,61,0.00,,,0.00,Wunderground v.1.15,2013-03-26 05:50:00,
2013-03-25 22:55:00,48.0,35.6,29.96,WNW,286,0.0,0.0,62,0.00,,,0.00,Wunderground v.1.15,2013-03-26 05:55:00,
2013-03-25 23:00:00,47.8,35.8,29.96,WNW,287,0.0,0.0,63,0.00,,,0.00,Wunderground v.1.15,2013-03-26 06:00:00,
2013-03-25 23:05:00,47.7,38.0,29.96,North,358,0.0,2.0,69,0.00,,,0.00,Wunderground v.1.15,2013-03-26 06:05:00,
2013-03-25 23:10:00,47.7,38.8,29.96,NE,38,1.0,4.0,71,0.00,,,0.00,Wunderground v.1.15,2013-03-26 06:10:00,
2013-03-25 23:15:00,47.7,36.9,29.96,North,356,1.0,4.0,66,0.00,,,0.00,Wunderground v.1.15,2013-03-26 06:15:00,
2013-03-25 23:21:00,47.6,37.2,29.97,North,354,0.0,1.0,67,0.00,,,0.00,Wunderground v.1.15,2013-03-26 06:21:00,
2013-03-25 23:27:00,47.6,36.8,29.97,SW,229,0.0,1.0,66,0.00,,,0.00,Wunderground v.1.15,2013-03-26 06:27:00,
2013-03-25 23:33:00,47.6,36.4,29.97,SW,229,0.0,0.0,65,0.00,,,0.00,Wunderground v.1.15,2013-03-26 06:33:00,
2013-03-25 23:38:00,47.5,36.7,29.97,SW,230,0.0,0.0,66,0.00,,,0.00,Wunderground v.1.15,2013-03-26 06:38:00,
2013-03-25 23:43:00,47.5,36.3,29.97,SW,230,0.0,0.0,65,0.00,,,0.00,Wunderground v.1.15,2013-03-26 06:43:00,
2013-03-25 23:48:00,47.7,35.7,29.97,SW,230,0.0,0.0,63,0.00,,,0.00,Wunderground v.1.15,2013-03-26 06:48:00,
2013-03-25 23:53:00,47.7,36.1,29.97,SSE,155,0.0,1.0,64,0.00,,,0.00,Wunderground v.1.15,2013-03-26 06:53:00,
2013-03-25 23:59:00,47.7,36.1,29.97,SSE,167,0.0,1.0,64,0.00,,,0.00,Wunderground v.1.15,2013-03-26 06:59:00,